Time;durP1;ratioP1;P1;durP2;ratioP2;P2;SDS_P1;SDS_P2;PMS_P1;PMS_P2;Temp;Humidity;BMP_temperature;BMP_pressure;BME280_temperature;BME280_humidity;BME280_pressure;Samples;Min_cycle;Max_cycle;Signal;HPM_P1;HPM_P2
2022/05/16 00:03:03;;;;;;;10.15;4.45;;;;;;;;;;8270598;28;20046;-84
2022/05/16 00:07:05;;;;;;;7.47;4.13;;;;;;;;;;8275517;28;20080;-85
2022/05/16 00:11:08;;;;;;;10.93;4.22;;;;;;;;;;8273609;28;20051;-84
2022/05/16 00:15:15;;;;;;;9.50;4.30;;;;;;;;;;8270141;28;20042;-85
2022/05/16 00:19:17;;;;;;;8.88;4.00;;;;;;;;;;8270038;28;20069;-84
2022/05/16 00:23:20;;;;;;;9.75;4.35;;;;;;;;;;8270173;28;20069;-84
2022/05/16 00:27:22;;;;;;;8.85;4.03;;;;;;;;;;8269986;28;20061;-84
2022/05/16 00:31:26;;;;;;;7.45;4.15;;;;;;;;;;8269110;28;20058;-84
2022/05/16 00:35:29;;;;;;;8.80;4.20;;;;;;;;;;8269843;28;20042;-84
2022/05/16 00:39:32;;;;;;;7.80;4.07;;;;;;;;;;8269267;28;20054;-84
2022/05/16 00:43:52;;;;;;;10.05;4.60;;;;;;;;;;8269737;28;20466;-84
2022/05/16 00:47:56;;;;;;;6.97;3.92;;;;;;;;;;8269535;28;20054;-87
2022/05/16 00:52:05;;;;;;;8.18;4.20;;;;;;;;;;8269759;28;20042;-85
2022/05/16 00:56:08;;;;;;;7.90;4.45;;;;;;;;;;8269208;28;20049;-86
2022/05/16 01:00:15;;;;;;;9.32;4.35;;;;;;;;;;8269324;28;20057;-85
2022/05/16 01:08:43;;;;;;;7.20;4.20;;;;;;;;;;8269170;28;20051;-84
2022/05/16 01:12:48;;;;;;;7.75;4.18;;;;;;;;;;8268687;28;20054;-85
2022/05/16 01:16:51;;;;;;;9.25;4.20;;;;;;;;;;8268824;28;20066;-85
2022/05/16 01:21:05;;;;;;;9.00;4.20;;;;;;;;;;8268135;28;20074;-85
2022/05/16 01:25:14;;;;;;;11.52;5.28;;;;;;;;;;8268345;28;20045;-85
2022/05/16 01:29:17;;;;;;;7.88;4.20;;;;;;;;;;8268165;28;20091;-85
2022/05/16 01:33:21;;;;;;;10.00;4.75;;;;;;;;;;8268367;28;20105;-85
2022/05/16 01:38:18;;;;;;;8.88;4.25;;;;;;;;;;8267726;28;20069;-85
2022/05/16 01:41:48;;;;;;;9.00;4.60;;;;;;;;;;8292707;28;20049;-85
2022/05/16 01:45:51;;;;;;;9.77;4.68;;;;;;;;;;8266685;28;20058;-86
2022/05/16 01:49:53;;;;;;;9.93;4.72;;;;;;;;;;8291224;28;20063;-85
2022/05/16 01:53:56;;;;;;;8.50;4.65;;;;;;;;;;8264795;28;20112;-85
2022/05/16 01:58:00;;;;;;;8.40;4.47;;;;;;;;;;8264721;28;20045;-86
2022/05/16 02:02:03;;;;;;;10.48;4.63;;;;;;;;;;8263934;28;20054;-86
2022/05/16 02:06:06;;;;;;;6.95;4.20;;;;;;;;;;8264877;28;20049;-87
2022/05/16 02:10:10;;;;;;;9.75;4.53;;;;;;;;;;8266927;28;20466;-85
2022/05/16 02:14:14;;;;;;;10.05;4.68;;;;;;;;;;8267262;28;20483;-85
2022/05/16 02:18:17;;;;;;;9.68;4.97;;;;;;;;;;8266658;28;20054;-86
2022/05/16 02:26:46;;;;;;;9.45;5.03;;;;;;;;;;8267000;28;20043;-85
2022/05/16 02:30:51;;;;;;;10.98;4.97;;;;;;;;;;8267040;28;20058;-85
2022/05/16 02:34:55;;;;;;;12.32;6.10;;;;;;;;;;8266634;28;20562;-85
2022/05/16 02:38:57;;;;;;;23.85;11.60;;;;;;;;;;8266397;28;20046;-86
2022/05/16 02:43:00;;;;;;;42.00;19.35;;;;;;;;;;8276083;28;20371;-87
2022/05/16 02:47:05;;;;;;;29.73;16.88;;;;;;;;;;8296870;28;20053;-86
2022/05/16 02:51:07;;;;;;;14.55;9.13;;;;;;;;;;8297180;28;20085;-86
2022/05/16 02:55:11;;;;;;;13.05;7.40;;;;;;;;;;8287871;28;20105;-85
2022/05/16 02:59:13;;;;;;;10.55;5.50;;;;;;;;;;8266106;28;20069;-85
2022/05/16 03:03:17;;;;;;;9.75;4.82;;;;;;;;;;8265765;28;20235;-85
2022/05/16 03:07:20;;;;;;;10.60;5.20;;;;;;;;;;8266163;28;20458;-86
2022/05/16 03:11:23;;;;;;;15.88;4.95;;;;;;;;;;8265735;28;20382;-86
2022/05/16 03:15:29;;;;;;;12.23;5.28;;;;;;;;;;8257533;28;20120;-86
2022/05/16 03:19:35;;;;;;;11.73;4.80;;;;;;;;;;8265898;28;20422;-86
2022/05/16 03:23:38;;;;;;;7.07;4.32;;;;;;;;;;8265401;28;20042;-86
2022/05/16 03:27:41;;;;;;;8.90;4.43;;;;;;;;;;8265470;28;20050;-85
2022/05/16 03:31:44;;;;;;;7.97;4.82;;;;;;;;;;8296736;28;20046;-85
2022/05/16 03:35:49;;;;;;;9.52;4.75;;;;;;;;;;8296672;28;20092;-86
2022/05/16 03:44:12;;;;;;;10.02;5.47;;;;;;;;;;8296552;28;20081;-86
2022/05/16 03:48:14;;;;;;;9.07;4.82;;;;;;;;;;8289949;28;20410;-86
2022/05/16 03:52:18;;;;;;;10.02;4.90;;;;;;;;;;8265427;28;20050;-86
2022/05/16 03:56:22;;;;;;;11.00;5.60;;;;;;;;;;8265313;28;20065;-86
2022/05/16 04:00:25;;;;;;;9.00;4.60;;;;;;;;;;8264822;28;20050;-86
2022/05/16 04:04:28;;;;;;;9.40;4.75;;;;;;;;;;8264926;28;20046;-88
2022/05/16 04:08:33;;;;;;;10.02;4.95;;;;;;;;;;8269898;28;20065;-85
2022/05/16 04:12:35;;;;;;;10.85;5.20;;;;;;;;;;8270671;28;20047;-86
2022/05/16 04:16:38;;;;;;;9.73;4.63;;;;;;;;;;8271002;28;20046;-86
2022/05/16 04:20:41;;;;;;;7.55;4.45;;;;;;;;;;8270463;28;20043;-86
2022/05/16 04:24:45;;;;;;;8.85;4.97;;;;;;;;;;8286158;28;20060;-86
2022/05/16 04:28:47;;;;;;;8.55;4.05;;;;;;;;;;8301190;28;20054;-86
2022/05/16 04:32:50;;;;;;;8.80;3.97;;;;;;;;;;8300957;28;20133;-85
2022/05/16 04:36:52;;;;;;;9.45;4.10;;;;;;;;;;8299592;28;20466;-86
2022/05/16 04:45:24;;;;;;;7.65;4.15;;;;;;;;;;8271484;28;20046;-86
2022/05/16 04:49:33;;;;;;;6.05;3.28;;;;;;;;;;8290676;28;20053;-87
2022/05/16 04:53:38;;;;;;;7.05;3.58;;;;;;;;;;8300245;28;20045;-86
2022/05/16 04:57:52;;;;;;;7.32;3.97;;;;;;;;;;8300344;28;20052;-87
2022/05/16 05:01:54;;;;;;;9.75;3.90;;;;;;;;;;8300318;28;20401;-86
2022/05/16 05:05:58;;;;;;;12.00;3.97;;;;;;;;;;8283801;28;20481;-86
2022/05/16 05:14:35;;;;;;;10.13;7.57;;;;;;;;;;8268712;28;20052;-86
2022/05/16 05:18:39;;;;;;;14.93;5.97;;;;;;;;;;8268211;28;20463;-86
2022/05/16 05:22:43;;;;;;;11.32;6.25;;;;;;;;;;8268454;28;20413;-86
2022/05/16 05:26:46;;;;;;;14.60;6.35;;;;;;;;;;8269068;28;20047;-86
2022/05/16 05:30:50;;;;;;;12.95;6.80;;;;;;;;;;8287269;28;20042;-86
2022/05/16 05:34:53;;;;;;;15.30;6.05;;;;;;;;;;8300137;28;20056;-86
2022/05/16 05:38:57;;;;;;;11.30;5.38;;;;;;;;;;8299539;28;20547;-86
2022/05/16 05:43:04;;;;;;;10.80;5.93;;;;;;;;;;8269039;28;20532;-86
2022/05/16 05:47:09;;;;;;;12.90;5.53;;;;;;;;;;8267554;28;20066;-86
2022/05/16 05:51:12;;;;;;;11.85;5.57;;;;;;;;;;8291266;28;20129;-87
2022/05/16 05:55:15;;;;;;;10.43;5.07;;;;;;;;;;8298590;28;20068;-87
2022/05/16 05:59:17;;;;;;;9.70;4.40;;;;;;;;;;8298588;28;20100;-86
2022/05/16 06:03:21;;;;;;;7.85;4.45;;;;;;;;;;8298751;28;20497;-87
2022/05/16 06:07:24;;;;;;;8.70;4.40;;;;;;;;;;8299244;28;20470;-87
2022/05/16 06:11:28;;;;;;;11.40;4.00;;;;;;;;;;8270789;28;20105;-86
2022/05/16 06:15:30;;;;;;;12.15;4.15;;;;;;;;;;8267156;28;20050;-87
2022/05/16 06:19:36;;;;;;;8.98;3.55;;;;;;;;;;8266897;28;20104;-87
2022/05/16 06:23:39;;;;;;;6.82;3.28;;;;;;;;;;8293304;28;20053;-87
2022/05/16 06:27:42;;;;;;;7.03;2.70;;;;;;;;;;8297726;28;20048;-87
2022/05/16 06:31:44;;;;;;;5.28;2.65;;;;;;;;;;8297496;28;20546;-87
2022/05/16 06:35:50;;;;;;;5.68;2.70;;;;;;;;;;8297936;28;20417;-87
2022/05/16 06:39:52;;;;;;;6.05;2.42;;;;;;;;;;8265768;28;20053;-87
2022/05/16 06:43:55;;;;;;;5.22;2.30;;;;;;;;;;8265663;28;20058;-87
2022/05/16 06:47:58;;;;;;;7.25;2.70;;;;;;;;;;8266486;28;20046;-87
2022/05/16 06:52:03;;;;;;;4.28;2.63;;;;;;;;;;8266103;28;20046;-87
2022/05/16 06:56:06;;;;;;;7.30;3.05;;;;;;;;;;8266222;28;20056;-87
2022/05/16 07:00:10;;;;;;;6.15;2.30;;;;;;;;;;8266394;28;20050;-87
2022/05/16 07:04:13;;;;;;;3.92;2.08;;;;;;;;;;8266099;28;20479;-87
2022/05/16 07:08:19;;;;;;;5.03;2.10;;;;;;;;;;8288242;28;20091;-87
2022/05/16 07:12:21;;;;;;;6.80;2.03;;;;;;;;;;8297238;28;20042;-87
2022/05/16 07:16:24;;;;;;;5.13;1.98;;;;;;;;;;8297414;28;20045;-87
2022/05/16 07:20:26;;;;;;;7.13;2.00;;;;;;;;;;8288947;28;20072;-87
2022/05/16 07:24:31;;;;;;;3.63;1.58;;;;;;;;;;8297711;28;20123;-86
2022/05/16 07:28:34;;;;;;;4.93;1.92;;;;;;;;;;8296850;28;20050;-87
2022/05/16 07:32:41;;;;;;;5.13;2.10;;;;;;;;;;8296891;28;20080;-86
2022/05/16 07:36:44;;;;;;;4.97;2.10;;;;;;;;;;8297632;28;20394;-85
2022/05/16 07:40:48;;;;;;;3.92;1.85;;;;;;;;;;8299197;28;20457;-86
2022/05/16 07:44:51;;;;;;;6.15;1.92;;;;;;;;;;8284977;28;20053;-86
2022/05/16 07:48:54;;;;;;;4.38;1.92;;;;;;;;;;8303108;28;20129;-86
2022/05/16 07:52:58;;;;;;;6.60;2.15;;;;;;;;;;8302626;28;20046;-87
2022/05/16 07:57:04;;;;;;;5.32;1.90;;;;;;;;;;8302515;28;20193;-86
2022/05/16 08:01:06;;;;;;;4.07;1.80;;;;;;;;;;8302372;28;20046;-86
2022/05/16 08:05:11;;;;;;;4.35;1.80;;;;;;;;;;8302862;28;20060;-87
2022/05/16 08:13:35;;;;;;;4.43;2.30;;;;;;;;;;8296532;28;20062;-86
2022/05/16 08:17:38;;;;;;;2.42;1.50;;;;;;;;;;8302164;28;20050;-86
2022/05/16 08:21:42;;;;;;;4.85;1.80;;;;;;;;;;8276571;28;20085;-86
2022/05/16 08:25:45;;;;;;;4.20;1.85;;;;;;;;;;8301699;28;20078;-86
2022/05/16 08:29:49;;;;;;;2.50;1.60;;;;;;;;;;8301966;28;20504;-87
2022/05/16 08:33:52;;;;;;;3.28;1.70;;;;;;;;;;8301490;28;20046;-85
2022/05/16 08:42:15;;;;;;;5.35;1.60;;;;;;;;;;8269896;28;20572;-87
2022/05/16 08:46:35;;;;;;;5.05;1.92;;;;;;;;;;8269600;28;20113;-86
2022/05/16 08:50:42;;;;;;;3.63;1.73;;;;;;;;;;8296562;28;20049;-86
2022/05/16 08:54:50;;;;;;;3.58;1.75;;;;;;;;;;8299918;28;20045;-85
2022/05/16 08:58:58;;;;;;;3.63;1.60;;;;;;;;;;8300626;28;20042;-85
2022/05/16 09:03:06;;;;;;;3.33;1.70;;;;;;;;;;8300726;28;20042;-85
2022/05/16 09:07:16;;;;;;;2.53;1.48;;;;;;;;;;8300380;28;20046;-85
2022/05/16 09:11:25;;;;;;;3.17;1.50;;;;;;;;;;8300389;28;20137;-85
2022/05/16 09:15:36;;;;;;;2.55;1.50;;;;;;;;;;8300210;28;20096;-85
2022/05/16 09:19:48;;;;;;;;;;;;;;;;;;8300644;28;20060;-86
2022/05/16 09:24:00;;;;;;;3.10;1.52;;;;;;;;;;8300468;28;19921;-86
2022/05/16 09:32:30;;;;;;;4.65;1.60;;;;;;;;;;8293208;28;20482;-86
2022/05/16 09:36:38;;;;;;;2.55;1.40;;;;;;;;;;8268322;28;20050;-85
2022/05/16 09:40:54;;;;;;;3.42;1.25;;;;;;;;;;8268248;28;20186;-86
2022/05/16 09:45:02;;;;;;;3.40;1.45;;;;;;;;;;8268114;28;20526;-86
2022/05/16 09:49:08;;;;;;;4.63;1.70;;;;;;;;;;8268153;28;20092;-85
2022/05/16 09:53:15;;;;;;;3.65;1.50;;;;;;;;;;8267532;28;20050;-85
2022/05/16 09:57:20;;;;;;;2.88;1.73;;;;;;;;;;8268030;28;20053;-86
2022/05/16 10:01:35;;;;;;;2.85;1.60;;;;;;;;;;8267775;28;20121;-86
2022/05/16 10:05:47;;;;;;;3.70;1.50;;;;;;;;;;8267663;28;20476;-85
2022/05/16 10:09:52;;;;;;;3.85;1.67;;;;;;;;;;8267695;28;20553;-86
2022/05/16 10:13:57;;;;;;;3.58;2.00;;;;;;;;;;8267592;28;20482;-84
2022/05/16 10:18:01;;;;;;;5.68;2.00;;;;;;;;;;8267761;28;20065;-85
2022/05/16 10:22:08;;;;;;;3.10;1.42;;;;;;;;;;8267533;28;20445;-84
2022/05/16 10:26:18;;;;;;;2.20;1.40;;;;;;;;;;8266797;28;20042;-83
2022/05/16 10:30:26;;;;;;;3.00;1.60;;;;;;;;;;8267433;28;20053;-84
2022/05/16 10:34:36;;;;;;;3.08;1.50;;;;;;;;;;8290345;28;20068;-84
2022/05/16 10:38:44;;;;;;;6.00;1.58;;;;;;;;;;8297860;28;20173;-86
2022/05/16 10:42:52;;;;;;;3.85;1.60;;;;;;;;;;8297525;28;20045;-84
2022/05/16 10:47:13;;;;;;;3.13;1.58;;;;;;;;;;8292162;28;20150;-85
2022/05/16 10:51:21;;;;;;;4.23;1.57;;;;;;;;;;8292151;28;20056;-84
2022/05/16 10:55:24;;;;;;;3.75;1.88;;;;;;;;;;8297942;28;20057;-87
2022/05/16 10:59:48;;;;;;;4.68;1.70;;;;;;;;;;8289024;28;20052;-86
2022/05/16 11:04:14;;;;;;;3.13;1.60;;;;;;;;;;8266688;28;20624;-86
2022/05/16 11:08:29;;;;;;;5.18;1.88;;;;;;;;;;8266303;28;20054;-87
2022/05/16 11:12:38;;;;;;;3.58;1.60;;;;;;;;;;8266047;28;20086;-87
2022/05/16 11:16:43;;;;;;;4.40;1.70;;;;;;;;;;8289009;28;20054;-86
2022/05/16 11:20:52;;;;;;;5.30;1.70;;;;;;;;;;8279406;28;20050;-86
2022/05/16 11:25:02;;;;;;;4.45;1.70;;;;;;;;;;8272611;28;20046;-85
2022/05/16 11:29:19;;;;;;;3.72;1.70;;;;;;;;;;8272564;28;20050;-86
2022/05/16 11:33:37;;;;;;;3.33;1.40;;;;;;;;;;8272511;28;20043;-85
2022/05/16 11:38:00;;;;;;;2.83;1.60;;;;;;;;;;8272130;28;20478;-85
2022/05/16 11:42:16;;;;;;;3.90;1.77;;;;;;;;;;8269607;28;20108;-85
2022/05/16 11:46:29;;;;;;;4.60;1.73;;;;;;;;;;8272050;28;20110;-87
2022/05/16 11:50:43;;;;;;;3.90;1.75;;;;;;;;;;8271641;28;20129;-85
2022/05/16 11:54:53;;;;;;;5.72;1.75;;;;;;;;;;8271948;28;20050;-85
2022/05/16 12:03:43;;;;;;;2.80;1.60;;;;;;;;;;8271335;28;20050;-86
2022/05/16 12:07:52;;;;;;;4.93;1.70;;;;;;;;;;8270908;28;20050;-86
2022/05/16 12:11:59;;;;;;;5.38;1.52;;;;;;;;;;8271451;28;20053;-87
2022/05/16 12:16:28;;;;;;;5.18;1.83;;;;;;;;;;8271233;28;20125;-86
2022/05/16 12:21:05;;;;;;;3.25;1.60;;;;;;;;;;8271009;28;20050;-86
2022/05/16 12:25:12;;;;;;;3.88;1.60;;;;;;;;;;8298906;28;20128;-85
2022/05/16 12:29:20;;;;;;;3.55;1.55;;;;;;;;;;8301312;28;20042;-85
2022/05/16 12:33:50;;;;;;;3.35;1.40;;;;;;;;;;8302070;28;20050;-85
2022/05/16 12:37:53;;;;;;;4.72;1.70;;;;;;;;;;8270159;28;20054;-85
2022/05/16 12:42:11;;;;;;;3.40;1.60;;;;;;;;;;8270119;28;20136;-85
2022/05/16 12:46:40;;;;;;;4.80;1.90;;;;;;;;;;8295631;28;20494;-86
2022/05/16 12:51:21;;;;;;;4.30;1.80;;;;;;;;;;8301083;28;20100;-86
2022/05/16 12:55:46;;;;;;;3.05;1.60;;;;;;;;;;8276321;28;20046;-85
2022/05/16 12:59:59;;;;;;;2.65;1.60;;;;;;;;;;8277626;28;20475;-85
2022/05/16 13:04:10;;;;;;;4.43;1.60;;;;;;;;;;8269487;28;20143;-85
2022/05/16 13:08:24;;;;;;;7.13;1.60;;;;;;;;;;8269179;28;20097;-85
2022/05/16 13:12:40;;;;;;;5.32;1.80;;;;;;;;;;8269267;28;20473;-86
2022/05/16 13:16:53;;;;;;;3.75;1.60;;;;;;;;;;8283498;28;20050;-85
2022/05/16 13:21:01;;;;;;;2.20;1.50;;;;;;;;;;8302552;28;20054;-86
2022/05/16 13:25:05;;;;;;;3.28;1.60;;;;;;;;;;8300429;28;20042;-85
2022/05/16 13:29:22;;;;;;;2.83;1.40;;;;;;;;;;8299843;28;20058;-85
2022/05/16 13:33:31;;;;;;;5.22;1.98;;;;;;;;;;8299730;28;20559;-85
2022/05/16 13:37:43;;;;;;;4.30;1.60;;;;;;;;;;8291967;28;20050;-85
2022/05/16 13:41:58;;;;;;;3.92;1.70;;;;;;;;;;8299505;28;20049;-85
2022/05/16 13:46:01;;;;;;;4.90;1.60;;;;;;;;;;8299285;28;20058;-85
2022/05/16 13:50:07;;;;;;;4.38;1.60;;;;;;;;;;8299623;28;20056;-85
2022/05/16 13:54:15;;;;;;;2.95;1.40;;;;;;;;;;8299154;28;20468;-85
2022/05/16 13:58:19;;;;;;;3.40;1.50;;;;;;;;;;8275131;28;20426;-86
2022/05/16 14:02:27;;;;;;;3.35;1.40;;;;;;;;;;8287258;28;20437;-85
2022/05/16 14:06:37;;;;;;;6.65;1.50;;;;;;;;;;8259806;28;20046;-85
2022/05/16 14:10:40;;;;;;;4.25;1.60;;;;;;;;;;8267549;28;20403;-85
2022/05/16 14:14:44;;;;;;;3.17;1.70;;;;;;;;;;8267540;28;20096;-85
2022/05/16 14:18:50;;;;;;;5.38;1.70;;;;;;;;;;8285043;28;20091;-85
2022/05/16 14:22:59;;;;;;;4.45;1.67;;;;;;;;;;8298073;28;20057;-85
2022/05/16 14:27:02;;;;;;;2.72;1.90;;;;;;;;;;8298440;28;20081;-85
2022/05/16 14:31:19;;;;;;;3.30;1.65;;;;;;;;;;8293114;28;20054;-85
2022/05/16 14:35:27;;;;;;;3.40;1.40;;;;;;;;;;8266675;28;20039;-85
2022/05/16 14:39:33;;;;;;;3.22;1.58;;;;;;;;;;8266669;28;20483;-85
2022/05/16 14:43:38;;;;;;;3.55;1.70;;;;;;;;;;8265734;28;20430;-85
2022/05/16 14:47:43;;;;;;;4.80;1.50;;;;;;;;;;8266963;28;20046;-86
2022/05/16 14:51:48;;;;;;;3.63;1.52;;;;;;;;;;8292420;28;20132;-90
2022/05/16 14:55:54;;;;;;;7.72;1.70;;;;;;;;;;8268358;28;20415;-87
2022/05/16 14:59:58;;;;;;;3.13;1.60;;;;;;;;;;8266934;28;20051;-85
2022/05/16 15:04:03;;;;;;;5.32;1.45;;;;;;;;;;8266478;28;20533;-87
2022/05/16 15:08:06;;;;;;;2.20;1.40;;;;;;;;;;8265968;28;20069;-85
2022/05/16 15:12:12;;;;;;;3.65;1.58;;;;;;;;;;8283618;28;20050;-85
2022/05/16 15:16:15;;;;;;;3.30;1.60;;;;;;;;;;8288767;28;20054;-85
2022/05/16 15:20:18;;;;;;;4.03;1.48;;;;;;;;;;8292782;28;20046;-85
2022/05/16 15:24:25;;;;;;;4.13;1.65;;;;;;;;;;8321295;28;20402;-84
2022/05/16 15:28:33;;;;;;;5.95;1.83;;;;;;;;;;8308870;28;20497;-85
2022/05/16 15:32:35;;;;;;;3.65;1.77;;;;;;;;;;8266667;28;20104;-86
2022/05/16 15:36:39;;;;;;;4.05;1.60;;;;;;;;;;8267038;28;20046;-85
2022/05/16 15:40:43;;;;;;;4.68;1.52;;;;;;;;;;8295005;28;20149;-85
2022/05/16 15:44:49;;;;;;;2.83;1.60;;;;;;;;;;8296690;28;20116;-87
2022/05/16 15:48:52;;;;;;;5.68;1.60;;;;;;;;;;8268695;28;20047;-84
2022/05/16 15:52:55;;;;;;;3.47;1.50;;;;;;;;;;8248578;28;20124;-84
2022/05/16 15:56:58;;;;;;;5.32;1.70;;;;;;;;;;8286946;28;20054;-84
2022/05/16 16:01:03;;;;;;;4.45;1.65;;;;;;;;;;8299314;28;20042;-85
2022/05/16 16:09:29;;;;;;;6.13;1.90;;;;;;;;;;8302562;28;20053;-87
2022/05/16 16:13:32;;;;;;;3.45;1.65;;;;;;;;;;8302093;28;20050;-86
2022/05/16 16:17:37;;;;;;;3.67;1.70;;;;;;;;;;8301827;28;20054;-85
2022/05/16 16:21:41;;;;;;;4.38;1.77;;;;;;;;;;8301926;28;20137;-85
2022/05/16 16:25:45;;;;;;;3.38;1.67;;;;;;;;;;8301951;28;20498;-85
2022/05/16 16:29:47;;;;;;;4.57;1.85;;;;;;;;;;8302247;28;20057;-86
2022/05/16 16:33:52;;;;;;;8.60;5.47;;;;;;;;;;8282071;28;20053;-84
2022/05/16 16:37:59;;;;;;;3.20;1.63;;;;;;;;;;8270461;28;20058;-85
2022/05/16 16:42:07;;;;;;;2.92;1.67;;;;;;;;;;8270197;28;20046;-84
2022/05/16 16:46:12;;;;;;;4.53;1.58;;;;;;;;;;8271445;28;20141;-85
2022/05/16 16:50:17;;;;;;;3.50;1.70;;;;;;;;;;8301307;28;20050;-85
2022/05/16 16:58:43;;;;;;;10.55;5.80;;;;;;;;;;8301573;28;20050;-85
2022/05/16 17:02:48;;;;;;;6.68;3.00;;;;;;;;;;8300572;28;20053;-84
2022/05/16 17:06:52;;;;;;;7.03;2.97;;;;;;;;;;8300614;28;20050;-85
2022/05/16 17:10:58;;;;;;;6.78;3.25;;;;;;;;;;8300449;28;20072;-84
2022/05/16 17:15:02;;;;;;;5.53;2.60;;;;;;;;;;8299800;28;20145;-84
2022/05/16 17:19:10;;;;;;;6.97;1.83;;;;;;;;;;8279650;28;20065;-84
2022/05/16 17:23:16;;;;;;;5.07;1.55;;;;;;;;;;8269213;28;20061;-83
2022/05/16 17:27:19;;;;;;;2.95;1.42;;;;;;;;;;8282116;28;20046;-85
2022/05/16 17:31:24;;;;;;;6.15;1.80;;;;;;;;;;8275570;28;20050;-85
2022/05/16 17:35:29;;;;;;;4.75;1.50;;;;;;;;;;8269326;28;20047;-84
2022/05/16 17:39:34;;;;;;;3.22;1.75;;;;;;;;;;8269637;28;20069;-85
2022/05/16 17:43:37;;;;;;;2.47;1.70;;;;;;;;;;8268077;28;20452;-84
2022/05/16 17:47:40;;;;;;;6.00;1.70;;;;;;;;;;8300206;28;20605;-87
2022/05/16 17:51:45;;;;;;;2.42;1.58;;;;;;;;;;8315668;28;20053;-87
2022/05/16 17:55:50;;;;;;;4.93;1.40;;;;;;;;;;8333329;28;20129;-86
2022/05/16 17:59:53;;;;;;;3.38;1.50;;;;;;;;;;8331413;28;20038;-85
2022/05/16 18:03:56;;;;;;;4.72;1.58;;;;;;;;;;8268448;28;20085;-84
2022/05/16 18:08:01;;;;;;;8.45;3.58;;;;;;;;;;8274279;28;20298;-84
2022/05/16 18:16:29;;;;;;;6.43;3.60;;;;;;;;;;8265516;28;20039;-84
2022/05/16 18:20:32;;;;;;;4.43;1.88;;;;;;;;;;8266803;28;20050;-84
2022/05/16 18:24:36;;;;;;;1.35;1.25;;;;;;;;;;8266497;28;20161;-84
2022/05/16 18:28:42;;;;;;;3.35;1.27;;;;;;;;;;8267197;28;20077;-84
2022/05/16 18:32:47;;;;;;;2.58;1.75;;;;;;;;;;8267531;28;20042;-84
2022/05/16 18:36:53;;;;;;;7.68;1.77;;;;;;;;;;8266998;28;20137;-83
2022/05/16 18:40:58;;;;;;;3.88;1.77;;;;;;;;;;8292109;28;20056;-85
2022/05/16 18:53:46;;;;;;;10.02;1.63;;;;;;;;;;8276352;28;19922;-84
2022/05/16 18:57:49;;;;;;;4.13;1.70;;;;;;;;;;8297568;28;20038;-84
2022/05/16 19:01:54;;;;;;;3.50;1.80;;;;;;;;;;8297183;28;20041;-84
2022/05/16 19:06:03;;;;;;;4.90;2.45;;;;;;;;;;8285150;28;20046;-84
2022/05/16 19:10:25;;;;;;;6.28;2.70;;;;;;;;;;8267734;28;20062;-87
2022/05/16 19:14:27;;;;;;;5.97;2.30;;;;;;;;;;8267651;28;20417;-84
2022/05/16 19:18:33;;;;;;;5.32;2.33;;;;;;;;;;8266117;28;20504;-85
2022/05/16 19:22:36;;;;;;;9.90;3.15;;;;;;;;;;8266316;28;20073;-85
2022/05/16 19:26:40;;;;;;;7.45;2.40;;;;;;;;;;8265567;28;20057;-85
2022/05/16 19:35:10;;;;;;;7.18;3.80;;;;;;;;;;8290886;28;20406;-84
2022/05/16 19:39:13;;;;;;;5.90;2.67;;;;;;;;;;8271569;28;20076;-84
2022/05/16 19:43:18;;;;;;;4.68;2.50;;;;;;;;;;8271719;28;20050;-84
2022/05/16 19:47:21;;;;;;;5.57;2.40;;;;;;;;;;8271534;28;20610;-83
2022/05/16 19:51:26;;;;;;;7.13;3.40;;;;;;;;;;8271682;28;20108;-83
2022/05/16 19:55:30;;;;;;;7.45;3.60;;;;;;;;;;8271645;28;20042;-84
2022/05/16 19:59:34;;;;;;;6.93;2.72;;;;;;;;;;8271968;28;20487;-84
2022/05/16 20:03:38;;;;;;;6.88;2.58;;;;;;;;;;8271017;28;20042;-84
2022/05/16 20:07:43;;;;;;;4.45;2.40;;;;;;;;;;8270990;28;20046;-83
2022/05/16 20:11:49;;;;;;;5.18;2.60;;;;;;;;;;8253406;28;20050;-83
2022/05/16 20:15:52;;;;;;;11.93;6.75;;;;;;;;;;8270907;28;20050;-84
2022/05/16 20:19:55;;;;;;;5.68;3.25;;;;;;;;;;8270938;28;20612;-84
2022/05/16 20:28:20;;;;;;;5.40;2.70;;;;;;;;;;8270524;28;20042;-85
2022/05/16 20:32:24;;;;;;;3.75;2.70;;;;;;;;;;8270075;28;20120;-84
2022/05/16 20:36:28;;;;;;;4.57;2.75;;;;;;;;;;8270093;28;20134;-83
2022/05/16 20:40:36;;;;;;;3.53;2.47;;;;;;;;;;8269858;28;20042;-83
2022/05/16 20:44:39;;;;;;;4.32;2.20;;;;;;;;;;8269353;28;20085;-83
2022/05/16 20:48:43;;;;;;;4.65;2.15;;;;;;;;;;8271125;28;20054;-84
2022/05/16 20:52:46;;;;;;;4.15;2.20;;;;;;;;;;8269841;28;20057;-83
2022/05/16 20:56:52;;;;;;;5.63;2.15;;;;;;;;;;8269741;28;20046;-84
2022/05/16 21:00:55;;;;;;;3.90;2.55;;;;;;;;;;8269671;28;20054;-83
2022/05/16 21:04:58;;;;;;;4.60;2.35;;;;;;;;;;8269448;28;20460;-85
2022/05/16 21:09:01;;;;;;;4.00;2.20;;;;;;;;;;8290217;28;20046;-85
2022/05/16 21:13:11;;;;;;;4.03;2.65;;;;;;;;;;8300728;28;20143;-85
2022/05/16 21:17:13;;;;;;;3.35;2.13;;;;;;;;;;8299876;28;20074;-85
2022/05/16 21:21:16;;;;;;;3.45;2.10;;;;;;;;;;8298755;28;20052;-85
2022/05/16 21:25:19;;;;;;;3.95;2.35;;;;;;;;;;8269056;28;20429;-85
2022/05/16 21:29:23;;;;;;;3.20;2.05;;;;;;;;;;8268896;28;20478;-85
2022/05/16 21:33:26;;;;;;;2.85;2.03;;;;;;;;;;8268474;28;20050;-84
2022/05/16 21:37:30;;;;;;;3.42;2.13;;;;;;;;;;8268304;28;20057;-84
2022/05/16 21:41:33;;;;;;;5.00;2.03;;;;;;;;;;8268367;28;20042;-84
2022/05/16 21:45:37;;;;;;;3.05;2.08;;;;;;;;;;8268097;28;20066;-84
2022/05/16 21:49:40;;;;;;;7.03;2.42;;;;;;;;;;8268325;28;20507;-84
2022/05/16 21:53:43;;;;;;;4.30;2.40;;;;;;;;;;8268126;28;20055;-84
2022/05/16 21:57:48;;;;;;;3.50;2.45;;;;;;;;;;8268019;28;20058;-84
2022/05/16 22:01:52;;;;;;;4.97;2.30;;;;;;;;;;8267905;28;20057;-86
2022/05/16 22:05:56;;;;;;;5.85;2.50;;;;;;;;;;8267328;28;20119;-84
2022/05/16 22:09:58;;;;;;;5.88;2.50;;;;;;;;;;8267543;28;20050;-85
2022/05/16 22:14:01;;;;;;;3.97;2.20;;;;;;;;;;8267305;28;20050;-85
2022/05/16 22:18:06;;;;;;;7.20;2.63;;;;;;;;;;8267291;28;20054;-84
2022/05/16 22:22:08;;;;;;;5.38;2.50;;;;;;;;;;8267008;28;20046;-84
2022/05/16 22:26:14;;;;;;;4.45;2.75;;;;;;;;;;8267455;28;20495;-84
2022/05/16 22:30:20;;;;;;;5.95;2.70;;;;;;;;;;8266533;28;20046;-84
2022/05/16 22:34:25;;;;;;;4.75;2.50;;;;;;;;;;8267114;28;20050;-84
2022/05/16 22:38:27;;;;;;;6.13;2.50;;;;;;;;;;8283969;28;20048;-84
2022/05/16 22:42:32;;;;;;;3.60;2.28;;;;;;;;;;8269396;28;20474;-84
2022/05/16 22:46:34;;;;;;;6.20;2.60;;;;;;;;;;8266184;28;20137;-84
2022/05/16 22:50:38;;;;;;;4.60;2.40;;;;;;;;;;8266960;28;20053;-84
2022/05/16 22:54:41;;;;;;;3.50;2.20;;;;;;;;;;8265927;28;20046;-84
2022/05/16 22:58:44;;;;;;;5.05;2.20;;;;;;;;;;8266274;28;20556;-85
2022/05/16 23:07:08;;;;;;;4.40;2.45;;;;;;;;;;8292033;28;20046;-84
2022/05/16 23:11:13;;;;;;;4.38;2.50;;;;;;;;;;8298150;28;20054;-84
2022/05/16 23:15:16;;;;;;;4.50;2.35;;;;;;;;;;8303980;28;20401;-84
2022/05/16 23:19:18;;;;;;;7.63;2.55;;;;;;;;;;8272564;28;20054;-86
2022/05/16 23:23:23;;;;;;;4.47;2.42;;;;;;;;;;8272431;28;20042;-85
2022/05/16 23:27:26;;;;;;;5.47;2.40;;;;;;;;;;8272107;28;20050;-86
2022/05/16 23:31:29;;;;;;;4.25;2.38;;;;;;;;;;8272097;28;20054;-86
2022/05/16 23:35:31;;;;;;;5.65;2.53;;;;;;;;;;8295456;28;20076;-84
2022/05/16 23:39:36;;;;;;;5.18;2.35;;;;;;;;;;8302941;28;20053;-85
2022/05/16 23:43:38;;;;;;;5.68;2.63;;;;;;;;;;8302658;28;20042;-84
2022/05/16 23:47:42;;;;;;;6.20;2.65;;;;;;;;;;8302738;28;20046;-84
2022/05/16 23:51:44;;;;;;;5.55;2.50;;;;;;;;;;8302550;28;20046;-84
2022/05/16 23:55:49;;;;;;;4.97;2.60;;;;;;;;;;8302206;28;20060;-85
2022/05/16 23:59:51;;;;;;;5.90;3.20;;;;;;;;;;8302350;28;20053;-86
